sensor_id;sensor_type;location;lat;lon;timestamp;P1;durP1;ratioP1;P2;durP2;ratioP2
39674;SDS011;27790;50.840;4.386;2023-03-23T00:01:19;6.28;;;4.38;;
39674;SDS011;27790;50.840;4.386;2023-03-23T00:03:48;5.15;;;4.03;;
39674;SDS011;27790;50.840;4.386;2023-03-23T00:06:15;5.10;;;3.67;;
39674;SDS011;27790;50.840;4.386;2023-03-23T00:08:46;7.38;;;4.03;;
39674;SDS011;27790;50.840;4.386;2023-03-23T00:11:15;4.88;;;3.83;;
39674;SDS011;27790;50.840;4.386;2023-03-23T00:13:44;5.47;;;3.42;;
39674;SDS011;27790;50.840;4.386;2023-03-23T00:16:11;6.70;;;3.53;;
39674;SDS011;27790;50.840;4.386;2023-03-23T00:18:52;6.53;;;3.83;;
39674;SDS011;27790;50.840;4.386;2023-03-23T00:21:18;7.07;;;4.22;;
39674;SDS011;27790;50.840;4.386;2023-03-23T00:23:44;4.85;;;3.35;;
39674;SDS011;27790;50.840;4.386;2023-03-23T00:26:11;7.22;;;3.70;;
39674;SDS011;27790;50.840;4.386;2023-03-23T00:28:36;4.22;;;3.38;;
39674;SDS011;27790;50.840;4.386;2023-03-23T00:31:04;6.93;;;3.83;;
39674;SDS011;27790;50.840;4.386;2023-03-23T00:33:32;5.75;;;3.47;;
39674;SDS011;27790;50.840;4.386;2023-03-23T00:36:02;3.92;;;3.53;;
39674;SDS011;27790;50.840;4.386;2023-03-23T00:38:39;4.47;;;3.22;;
39674;SDS011;27790;50.840;4.386;2023-03-23T00:41:07;4.38;;;3.58;;
39674;SDS011;27790;50.840;4.386;2023-03-23T00:43:33;5.75;;;3.83;;
39674;SDS011;27790;50.840;4.386;2023-03-23T00:46:02;3.80;;;3.33;;
39674;SDS011;27790;50.840;4.386;2023-03-23T00:48:33;6.07;;;3.30;;
39674;SDS011;27790;50.840;4.386;2023-03-23T00:51:00;6.53;;;3.53;;
39674;SDS011;27790;50.840;4.386;2023-03-23T00:53:31;6.90;;;3.88;;
39674;SDS011;27790;50.840;4.386;2023-03-23T00:55:58;4.53;;;3.40;;
39674;SDS011;27790;50.840;4.386;2023-03-23T00:58:23;7.07;;;3.40;;
39674;SDS011;27790;50.840;4.386;2023-03-23T01:00:49;3.80;;;3.22;;
39674;SDS011;27790;50.840;4.386;2023-03-23T01:03:15;5.18;;;3.25;;
39674;SDS011;27790;50.840;4.386;2023-03-23T01:05:43;9.70;;;4.07;;
39674;SDS011;27790;50.840;4.386;2023-03-23T01:08:12;9.15;;;4.10;;
39674;SDS011;27790;50.840;4.386;2023-03-23T01:10:38;3.42;;;3.13;;
39674;SDS011;27790;50.840;4.386;2023-03-23T01:13:04;5.68;;;3.40;;
39674;SDS011;27790;50.840;4.386;2023-03-23T01:15:30;4.25;;;3.60;;
39674;SDS011;27790;50.840;4.386;2023-03-23T01:17:56;4.63;;;3.10;;
39674;SDS011;27790;50.840;4.386;2023-03-23T01:20:22;5.97;;;3.80;;
39674;SDS011;27790;50.840;4.386;2023-03-23T01:22:48;4.35;;;3.22;;
39674;SDS011;27790;50.840;4.386;2023-03-23T01:25:15;4.90;;;3.83;;
39674;SDS011;27790;50.840;4.386;2023-03-23T01:27:40;5.70;;;3.47;;
39674;SDS011;27790;50.840;4.386;2023-03-23T01:30:07;4.47;;;4.07;;
39674;SDS011;27790;50.840;4.386;2023-03-23T01:32:35;5.40;;;3.42;;
39674;SDS011;27790;50.840;4.386;2023-03-23T01:35:01;3.58;;;2.88;;
39674;SDS011;27790;50.840;4.386;2023-03-23T01:37:26;3.17;;;2.88;;
39674;SDS011;27790;50.840;4.386;2023-03-23T01:39:55;4.32;;;3.65;;
39674;SDS011;27790;50.840;4.386;2023-03-23T01:42:22;9.43;;;3.63;;
39674;SDS011;27790;50.840;4.386;2023-03-23T01:47:31;3.22;;;2.92;;
39674;SDS011;27790;50.840;4.386;2023-03-23T01:49:57;3.50;;;2.63;;
39674;SDS011;27790;50.840;4.386;2023-03-23T01:52:23;3.47;;;2.55;;
39674;SDS011;27790;50.840;4.386;2023-03-23T01:54:54;11.77;;;3.88;;
39674;SDS011;27790;50.840;4.386;2023-03-23T01:57:21;5.30;;;3.13;;
39674;SDS011;27790;50.840;4.386;2023-03-23T01:59:52;3.15;;;2.85;;
39674;SDS011;27790;50.840;4.386;2023-03-23T02:02:20;4.00;;;3.25;;
39674;SDS011;27790;50.840;4.386;2023-03-23T02:04:47;6.32;;;3.42;;
39674;SDS011;27790;50.840;4.386;2023-03-23T02:07:13;4.00;;;3.60;;
39674;SDS011;27790;50.840;4.386;2023-03-23T02:09:42;6.22;;;3.08;;
39674;SDS011;27790;50.840;4.386;2023-03-23T02:12:07;3.25;;;2.95;;
39674;SDS011;27790;50.840;4.386;2023-03-23T02:14:33;5.60;;;2.70;;
39674;SDS011;27790;50.840;4.386;2023-03-23T02:17:03;5.68;;;2.55;;
39674;SDS011;27790;50.840;4.386;2023-03-23T02:33:17;6.15;;;2.40;;
39674;SDS011;27790;50.840;4.386;2023-03-23T02:35:56;7.85;;;1.73;;
39674;SDS011;27790;50.840;4.386;2023-03-23T02:38:31;8.88;;;2.15;;
39674;SDS011;27790;50.840;4.386;2023-03-23T02:41:03;3.50;;;1.75;;
39674;SDS011;27790;50.840;4.386;2023-03-23T02:43:31;4.30;;;1.45;;
39674;SDS011;27790;50.840;4.386;2023-03-23T02:46:06;3.20;;;1.48;;
39674;SDS011;27790;50.840;4.386;2023-03-23T02:48:34;2.42;;;1.35;;
39674;SDS011;27790;50.840;4.386;2023-03-23T02:51:01;2.50;;;1.00;;
39674;SDS011;27790;50.840;4.386;2023-03-23T02:53:28;2.50;;;1.50;;
39674;SDS011;27790;50.840;4.386;2023-03-23T02:55:55;3.08;;;1.10;;
39674;SDS011;27790;50.840;4.386;2023-03-23T02:58:22;4.50;;;1.58;;
39674;SDS011;27790;50.840;4.386;2023-03-23T03:00:51;4.50;;;1.40;;
39674;SDS011;27790;50.840;4.386;2023-03-23T03:03:20;3.50;;;1.02;;
39674;SDS011;27790;50.840;4.386;2023-03-23T03:11:16;1.77;;;0.93;;
39674;SDS011;27790;50.840;4.386;2023-03-23T03:13:52;5.63;;;1.63;;
39674;SDS011;27790;50.840;4.386;2023-03-23T03:16:48;2.10;;;1.25;;
39674;SDS011;27790;50.840;4.386;2023-03-23T03:19:26;3.80;;;1.30;;
39674;SDS011;27790;50.840;4.386;2023-03-23T03:21:56;1.95;;;1.08;;
39674;SDS011;27790;50.840;4.386;2023-03-23T03:24:24;4.35;;;1.17;;
39674;SDS011;27790;50.840;4.386;2023-03-23T03:26:53;4.15;;;1.50;;
39674;SDS011;27790;50.840;4.386;2023-03-23T03:29:26;2.63;;;1.60;;
39674;SDS011;27790;50.840;4.386;2023-03-23T03:31:55;3.90;;;1.15;;
39674;SDS011;27790;50.840;4.386;2023-03-23T03:34:23;4.10;;;0.80;;
39674;SDS011;27790;50.840;4.386;2023-03-23T03:36:49;3.42;;;1.30;;
39674;SDS011;27790;50.840;4.386;2023-03-23T03:39:18;3.97;;;1.05;;
39674;SDS011;27790;50.840;4.386;2023-03-23T03:41:46;7.57;;;1.23;;
39674;SDS011;27790;50.840;4.386;2023-03-23T03:44:12;4.45;;;2.13;;
39674;SDS011;27790;50.840;4.386;2023-03-23T03:46:38;7.07;;;1.58;;
39674;SDS011;27790;50.840;4.386;2023-03-23T03:49:05;8.18;;;1.85;;
39674;SDS011;27790;50.840;4.386;2023-03-23T03:51:33;2.42;;;0.90;;
39674;SDS011;27790;50.840;4.386;2023-03-23T03:54:00;3.45;;;1.80;;
39674;SDS011;27790;50.840;4.386;2023-03-23T03:56:26;3.95;;;1.85;;
39674;SDS011;27790;50.840;4.386;2023-03-23T03:58:52;3.33;;;1.38;;
39674;SDS011;27790;50.840;4.386;2023-03-23T04:01:19;6.40;;;2.00;;
39674;SDS011;27790;50.840;4.386;2023-03-23T04:03:49;6.60;;;1.83;;
39674;SDS011;27790;50.840;4.386;2023-03-23T04:06:15;5.25;;;1.20;;
39674;SDS011;27790;50.840;4.386;2023-03-23T04:08:41;4.30;;;1.75;;
39674;SDS011;27790;50.840;4.386;2023-03-23T04:11:08;7.15;;;1.75;;
39674;SDS011;27790;50.840;4.386;2023-03-23T04:13:35;6.68;;;2.00;;
39674;SDS011;27790;50.840;4.386;2023-03-23T04:16:01;5.43;;;1.73;;
39674;SDS011;27790;50.840;4.386;2023-03-23T04:18:27;5.47;;;1.25;;
39674;SDS011;27790;50.840;4.386;2023-03-23T04:20:53;6.55;;;1.45;;
39674;SDS011;27790;50.840;4.386;2023-03-23T04:23:19;6.47;;;2.08;;
39674;SDS011;27790;50.840;4.386;2023-03-23T04:25:47;6.43;;;1.73;;
39674;SDS011;27790;50.840;4.386;2023-03-23T04:28:16;3.65;;;1.70;;
39674;SDS011;27790;50.840;4.386;2023-03-23T04:30:43;4.80;;;1.52;;
39674;SDS011;27790;50.840;4.386;2023-03-23T04:33:10;6.68;;;1.65;;
39674;SDS011;27790;50.840;4.386;2023-03-23T04:35:43;4.38;;;1.27;;
39674;SDS011;27790;50.840;4.386;2023-03-23T04:38:10;6.32;;;1.20;;
39674;SDS011;27790;50.840;4.386;2023-03-23T04:40:37;3.63;;;1.38;;
39674;SDS011;27790;50.840;4.386;2023-03-23T04:43:04;6.38;;;1.73;;
39674;SDS011;27790;50.840;4.386;2023-03-23T04:45:31;10.70;;;1.73;;
39674;SDS011;27790;50.840;4.386;2023-03-23T04:47:58;6.15;;;1.45;;
39674;SDS011;27790;50.840;4.386;2023-03-23T04:50:26;6.22;;;1.60;;
39674;SDS011;27790;50.840;4.386;2023-03-23T04:52:55;5.72;;;1.83;;
39674;SDS011;27790;50.840;4.386;2023-03-23T04:55:23;4.32;;;1.20;;
39674;SDS011;27790;50.840;4.386;2023-03-23T04:57:49;5.25;;;1.63;;
39674;SDS011;27790;50.840;4.386;2023-03-23T05:00:16;5.10;;;1.92;;
39674;SDS011;27790;50.840;4.386;2023-03-23T05:02:43;4.97;;;1.70;;
39674;SDS011;27790;50.840;4.386;2023-03-23T05:05:11;8.13;;;1.58;;
39674;SDS011;27790;50.840;4.386;2023-03-23T05:07:38;6.10;;;1.85;;
39674;SDS011;27790;50.840;4.386;2023-03-23T05:10:05;6.60;;;1.75;;
39674;SDS011;27790;50.840;4.386;2023-03-23T05:12:32;6.13;;;1.40;;
39674;SDS011;27790;50.840;4.386;2023-03-23T05:14:58;2.30;;;1.20;;
39674;SDS011;27790;50.840;4.386;2023-03-23T05:17:24;9.98;;;2.03;;
39674;SDS011;27790;50.840;4.386;2023-03-23T05:19:51;11.48;;;2.92;;
39674;SDS011;27790;50.840;4.386;2023-03-23T05:22:16;5.72;;;2.08;;
39674;SDS011;27790;50.840;4.386;2023-03-23T05:24:45;4.97;;;1.83;;
39674;SDS011;27790;50.840;4.386;2023-03-23T05:27:16;9.35;;;2.10;;
39674;SDS011;27790;50.840;4.386;2023-03-23T05:29:42;5.68;;;1.95;;
39674;SDS011;27790;50.840;4.386;2023-03-23T05:32:08;4.90;;;1.85;;
39674;SDS011;27790;50.840;4.386;2023-03-23T05:34:34;6.18;;;1.70;;
39674;SDS011;27790;50.840;4.386;2023-03-23T05:37:00;3.10;;;1.60;;
39674;SDS011;27790;50.840;4.386;2023-03-23T05:39:28;4.10;;;2.13;;
39674;SDS011;27790;50.840;4.386;2023-03-23T05:41:54;6.65;;;1.77;;
39674;SDS011;27790;50.840;4.386;2023-03-23T05:44:20;6.35;;;2.17;;
39674;SDS011;27790;50.840;4.386;2023-03-23T05:46:46;5.18;;;1.30;;
39674;SDS011;27790;50.840;4.386;2023-03-23T05:49:12;5.80;;;1.70;;
39674;SDS011;27790;50.840;4.386;2023-03-23T05:51:41;4.63;;;1.88;;
39674;SDS011;27790;50.840;4.386;2023-03-23T05:54:07;7.72;;;1.95;;
39674;SDS011;27790;50.840;4.386;2023-03-23T05:56:33;5.82;;;1.80;;
39674;SDS011;27790;50.840;4.386;2023-03-23T05:58:59;4.88;;;1.83;;
39674;SDS011;27790;50.840;4.386;2023-03-23T06:01:25;6.28;;;1.73;;
39674;SDS011;27790;50.840;4.386;2023-03-23T06:03:51;9.55;;;2.38;;
39674;SDS011;27790;50.840;4.386;2023-03-23T06:06:21;9.25;;;1.80;;
39674;SDS011;27790;50.840;4.386;2023-03-23T06:08:47;3.83;;;1.77;;
39674;SDS011;27790;50.840;4.386;2023-03-23T06:11:15;5.93;;;1.98;;
39674;SDS011;27790;50.840;4.386;2023-03-23T06:13:40;6.70;;;2.72;;
39674;SDS011;27790;50.840;4.386;2023-03-23T06:16:07;9.73;;;1.70;;
39674;SDS011;27790;50.840;4.386;2023-03-23T06:18:33;9.13;;;2.97;;
39674;SDS011;27790;50.840;4.386;2023-03-23T06:21:01;6.57;;;1.73;;
39674;SDS011;27790;50.840;4.386;2023-03-23T06:23:27;9.48;;;2.25;;
39674;SDS011;27790;50.840;4.386;2023-03-23T06:25:54;7.15;;;1.95;;
39674;SDS011;27790;50.840;4.386;2023-03-23T06:28:22;5.75;;;1.70;;
39674;SDS011;27790;50.840;4.386;2023-03-23T06:30:48;5.47;;;1.60;;
39674;SDS011;27790;50.840;4.386;2023-03-23T06:33:14;5.20;;;2.25;;
39674;SDS011;27790;50.840;4.386;2023-03-23T06:35:40;8.68;;;1.83;;
39674;SDS011;27790;50.840;4.386;2023-03-23T06:38:06;9.18;;;1.83;;
39674;SDS011;27790;50.840;4.386;2023-03-23T06:40:32;6.13;;;2.40;;
39674;SDS011;27790;50.840;4.386;2023-03-23T06:42:57;6.60;;;2.08;;
39674;SDS011;27790;50.840;4.386;2023-03-23T06:45:24;7.70;;;1.40;;
39674;SDS011;27790;50.840;4.386;2023-03-23T06:47:50;8.20;;;2.08;;
39674;SDS011;27790;50.840;4.386;2023-03-23T06:50:16;12.00;;;2.92;;
39674;SDS011;27790;50.840;4.386;2023-03-23T06:52:45;6.03;;;2.40;;
39674;SDS011;27790;50.840;4.386;2023-03-23T06:55:15;7.47;;;1.83;;
39674;SDS011;27790;50.840;4.386;2023-03-23T06:57:42;5.72;;;2.33;;
39674;SDS011;27790;50.840;4.386;2023-03-23T07:00:08;2.97;;;1.85;;
39674;SDS011;27790;50.840;4.386;2023-03-23T07:02:37;4.63;;;2.00;;
39674;SDS011;27790;50.840;4.386;2023-03-23T07:05:03;5.90;;;1.83;;
39674;SDS011;27790;50.840;4.386;2023-03-23T07:07:29;10.15;;;2.78;;
39674;SDS011;27790;50.840;4.386;2023-03-23T07:09:56;13.55;;;2.70;;
39674;SDS011;27790;50.840;4.386;2023-03-23T07:12:23;8.18;;;1.63;;
39674;SDS011;27790;50.840;4.386;2023-03-23T07:14:48;5.88;;;1.17;;
39674;SDS011;27790;50.840;4.386;2023-03-23T07:17:14;4.13;;;1.05;;
39674;SDS011;27790;50.840;4.386;2023-03-23T07:19:40;4.03;;;1.02;;
39674;SDS011;27790;50.840;4.386;2023-03-23T07:22:06;1.10;;;0.70;;
39674;SDS011;27790;50.840;4.386;2023-03-23T07:24:33;2.72;;;0.88;;
39674;SDS011;27790;50.840;4.386;2023-03-23T07:26:59;2.05;;;0.85;;
39674;SDS011;27790;50.840;4.386;2023-03-23T07:29:25;3.42;;;0.93;;
39674;SDS011;27790;50.840;4.386;2023-03-23T07:31:51;3.67;;;1.20;;
39674;SDS011;27790;50.840;4.386;2023-03-23T07:34:18;10.27;;;1.30;;
39674;SDS011;27790;50.840;4.386;2023-03-23T07:36:44;2.00;;;0.70;;
39674;SDS011;27790;50.840;4.386;2023-03-23T07:39:10;2.10;;;1.27;;
39674;SDS011;27790;50.840;4.386;2023-03-23T07:41:37;4.70;;;1.55;;
39674;SDS011;27790;50.840;4.386;2023-03-23T07:44:03;2.90;;;1.50;;
39674;SDS011;27790;50.840;4.386;2023-03-23T07:46:29;6.38;;;1.40;;
39674;SDS011;27790;50.840;4.386;2023-03-23T07:48:55;3.90;;;1.92;;
39674;SDS011;27790;50.840;4.386;2023-03-23T07:51:21;6.22;;;1.70;;
39674;SDS011;27790;50.840;4.386;2023-03-23T07:53:47;4.40;;;2.00;;
39674;SDS011;27790;50.840;4.386;2023-03-23T07:56:14;2.70;;;1.40;;
39674;SDS011;27790;50.840;4.386;2023-03-23T07:58:43;4.45;;;1.85;;
39674;SDS011;27790;50.840;4.386;2023-03-23T08:01:10;4.30;;;1.48;;
39674;SDS011;27790;50.840;4.386;2023-03-23T08:03:36;6.03;;;1.27;;
39674;SDS011;27790;50.840;4.386;2023-03-23T08:06:02;6.07;;;1.85;;
39674;SDS011;27790;50.840;4.386;2023-03-23T08:08:28;12.18;;;1.88;;
39674;SDS011;27790;50.840;4.386;2023-03-23T08:10:53;5.70;;;1.33;;
39674;SDS011;27790;50.840;4.386;2023-03-23T08:13:19;2.97;;;1.45;;
39674;SDS011;27790;50.840;4.386;2023-03-23T08:15:45;5.40;;;1.20;;
39674;SDS011;27790;50.840;4.386;2023-03-23T08:18:10;5.22;;;1.38;;
39674;SDS011;27790;50.840;4.386;2023-03-23T08:20:36;6.85;;;1.30;;
39674;SDS011;27790;50.840;4.386;2023-03-23T08:23:02;2.10;;;0.70;;
39674;SDS011;27790;50.840;4.386;2023-03-23T08:25:28;3.03;;;1.00;;
39674;SDS011;27790;50.840;4.386;2023-03-23T08:27:56;3.28;;;0.98;;
39674;SDS011;27790;50.840;4.386;2023-03-23T08:30:23;3.00;;;0.90;;
39674;SDS011;27790;50.840;4.386;2023-03-23T08:32:50;10.60;;;1.30;;
39674;SDS011;27790;50.840;4.386;2023-03-23T08:35:17;2.38;;;0.93;;
39674;SDS011;27790;50.840;4.386;2023-03-23T08:37:44;2.53;;;0.98;;
39674;SDS011;27790;50.840;4.386;2023-03-23T08:40:11;2.25;;;1.17;;
39674;SDS011;27790;50.840;4.386;2023-03-23T08:42:42;5.25;;;1.48;;
39674;SDS011;27790;50.840;4.386;2023-03-23T08:45:13;3.97;;;0.93;;
39674;SDS011;27790;50.840;4.386;2023-03-23T08:47:41;5.43;;;1.55;;
39674;SDS011;27790;50.840;4.386;2023-03-23T08:50:08;4.47;;;1.35;;
39674;SDS011;27790;50.840;4.386;2023-03-23T08:52:38;4.45;;;1.63;;
39674;SDS011;27790;50.840;4.386;2023-03-23T08:55:06;5.22;;;1.98;;
39674;SDS011;27790;50.840;4.386;2023-03-23T08:57:33;6.85;;;1.35;;
39674;SDS011;27790;50.840;4.386;2023-03-23T09:00:01;3.15;;;1.20;;
39674;SDS011;27790;50.840;4.386;2023-03-23T09:02:41;2.42;;;1.08;;
39674;SDS011;27790;50.840;4.386;2023-03-23T09:05:08;4.97;;;1.20;;
39674;SDS011;27790;50.840;4.386;2023-03-23T09:07:36;5.07;;;2.30;;
39674;SDS011;27790;50.840;4.386;2023-03-23T09:10:06;3.78;;;1.45;;
39674;SDS011;27790;50.840;4.386;2023-03-23T09:12:33;2.42;;;0.82;;
39674;SDS011;27790;50.840;4.386;2023-03-23T09:15:00;5.65;;;1.40;;
39674;SDS011;27790;50.840;4.386;2023-03-23T09:17:30;9.13;;;1.42;;
39674;SDS011;27790;50.840;4.386;2023-03-23T09:19:56;1.85;;;0.85;;
39674;SDS011;27790;50.840;4.386;2023-03-23T09:22:22;3.15;;;1.30;;
39674;SDS011;27790;50.840;4.386;2023-03-23T09:24:50;3.33;;;1.45;;
39674;SDS011;27790;50.840;4.386;2023-03-23T09:27:16;3.05;;;1.20;;
39674;SDS011;27790;50.840;4.386;2023-03-23T09:29:42;2.97;;;1.02;;
39674;SDS011;27790;50.840;4.386;2023-03-23T09:32:10;1.35;;;0.73;;
39674;SDS011;27790;50.840;4.386;2023-03-23T09:34:38;2.38;;;0.98;;
39674;SDS011;27790;50.840;4.386;2023-03-23T09:37:04;4.00;;;1.35;;
39674;SDS011;27790;50.840;4.386;2023-03-23T09:39:30;1.85;;;0.80;;
39674;SDS011;27790;50.840;4.386;2023-03-23T09:50:14;8.35;;;1.92;;
39674;SDS011;27790;50.840;4.386;2023-03-23T09:55:14;3.85;;;1.25;;
39674;SDS011;27790;50.840;4.386;2023-03-23T10:00:29;3.80;;;1.30;;
39674;SDS011;27790;50.840;4.386;2023-03-23T10:03:05;5.32;;;1.33;;
39674;SDS011;27790;50.840;4.386;2023-03-23T10:05:37;3.15;;;1.98;;
39674;SDS011;27790;50.840;4.386;2023-03-23T10:08:10;3.80;;;1.55;;
39674;SDS011;27790;50.840;4.386;2023-03-23T10:16:24;4.50;;;1.40;;
39674;SDS011;27790;50.840;4.386;2023-03-23T10:18:56;2.50;;;1.52;;
39674;SDS011;27790;50.840;4.386;2023-03-23T10:21:36;6.13;;;1.80;;
39674;SDS011;27790;50.840;4.386;2023-03-23T10:24:09;4.53;;;1.92;;
39674;SDS011;27790;50.840;4.386;2023-03-23T10:37:05;3.83;;;1.73;;
39674;SDS011;27790;50.840;4.386;2023-03-23T10:39:46;7.90;;;2.45;;
39674;SDS011;27790;50.840;4.386;2023-03-23T10:42:21;4.33;;;2.10;;
39674;SDS011;27790;50.840;4.386;2023-03-23T10:44:51;4.50;;;1.40;;
39674;SDS011;27790;50.840;4.386;2023-03-23T10:47:18;4.95;;;2.03;;
39674;SDS011;27790;50.840;4.386;2023-03-23T10:49:49;6.10;;;2.15;;
39674;SDS011;27790;50.840;4.386;2023-03-23T10:57:28;7.18;;;1.90;;
39674;SDS011;27790;50.840;4.386;2023-03-23T11:42:11;5.35;;;2.00;;
39674;SDS011;27790;50.840;4.386;2023-03-23T11:44:43;7.10;;;2.10;;
39674;SDS011;27790;50.840;4.386;2023-03-23T11:47:20;8.82;;;2.78;;
39674;SDS011;27790;50.840;4.386;2023-03-23T11:57:34;8.55;;;2.13;;
39674;SDS011;27790;50.840;4.386;2023-03-23T12:00:00;4.15;;;1.95;;
39674;SDS011;27790;50.840;4.386;2023-03-23T12:02:38;4.95;;;1.70;;
39674;SDS011;27790;50.840;4.386;2023-03-23T12:13:14;5.55;;;2.78;;
39674;SDS011;27790;50.840;4.386;2023-03-23T12:21:21;3.22;;;1.80;;
39674;SDS011;27790;50.840;4.386;2023-03-23T12:40:12;4.32;;;1.67;;
39674;SDS011;27790;50.840;4.386;2023-03-23T12:42:56;10.03;;;1.50;;
39674;SDS011;27790;50.840;4.386;2023-03-23T12:48:13;8.02;;;2.42;;
39674;SDS011;27790;50.840;4.386;2023-03-23T12:50:45;8.32;;;2.97;;
39674;SDS011;27790;50.840;4.386;2023-03-23T12:53:25;13.45;;;2.30;;
39674;SDS011;27790;50.840;4.386;2023-03-23T12:58:45;9.00;;;2.40;;
39674;SDS011;27790;50.840;4.386;2023-03-23T13:03:58;23.55;;;2.35;;
39674;SDS011;27790;50.840;4.386;2023-03-23T13:06:38;7.18;;;2.15;;
39674;SDS011;27790;50.840;4.386;2023-03-23T13:11:43;6.93;;;2.65;;
39674;SDS011;27790;50.840;4.386;2023-03-23T13:22:41;6.47;;;2.23;;
39674;SDS011;27790;50.840;4.386;2023-03-23T13:25:15;8.38;;;2.30;;
39674;SDS011;27790;50.840;4.386;2023-03-23T13:28:03;7.53;;;1.98;;
39674;SDS011;27790;50.840;4.386;2023-03-23T13:30:30;4.80;;;2.33;;
39674;SDS011;27790;50.840;4.386;2023-03-23T13:33:04;8.40;;;2.25;;
39674;SDS011;27790;50.840;4.386;2023-03-23T13:35:38;11.48;;;1.88;;
39674;SDS011;27790;50.840;4.386;2023-03-23T13:38:44;10.38;;;2.08;;
39674;SDS011;27790;50.840;4.386;2023-03-23T13:41:05;12.70;;;2.42;;
39674;SDS011;27790;50.840;4.386;2023-03-23T13:43:36;9.32;;;2.92;;
39674;SDS011;27790;50.840;4.386;2023-03-23T13:46:11;9.68;;;2.58;;
39674;SDS011;27790;50.840;4.386;2023-03-23T13:48:49;6.55;;;2.00;;
39674;SDS011;27790;50.840;4.386;2023-03-23T13:51:46;13.00;;;3.05;;
39674;SDS011;27790;50.840;4.386;2023-03-23T13:56:57;12.52;;;3.00;;
39674;SDS011;27790;50.840;4.386;2023-03-23T14:01:51;9.68;;;3.17;;
39674;SDS011;27790;50.840;4.386;2023-03-23T14:04:22;7.28;;;2.38;;
39674;SDS011;27790;50.840;4.386;2023-03-23T14:06:55;10.40;;;2.15;;
39674;SDS011;27790;50.840;4.386;2023-03-23T14:09:26;7.35;;;1.88;;
39674;SDS011;27790;50.840;4.386;2023-03-23T14:11:57;10.80;;;2.38;;
39674;SDS011;27790;50.840;4.386;2023-03-23T14:14:38;7.70;;;1.80;;
39674;SDS011;27790;50.840;4.386;2023-03-23T14:17:28;6.88;;;2.10;;
39674;SDS011;27790;50.840;4.386;2023-03-23T14:19:54;9.88;;;2.63;;
39674;SDS011;27790;50.840;4.386;2023-03-23T14:22:28;8.85;;;2.28;;
39674;SDS011;27790;50.840;4.386;2023-03-23T14:24:59;10.20;;;2.83;;
39674;SDS011;27790;50.840;4.386;2023-03-23T14:27:33;7.95;;;2.28;;
39674;SDS011;27790;50.840;4.386;2023-03-23T14:30:00;16.67;;;3.30;;
39674;SDS011;27790;50.840;4.386;2023-03-23T14:32:29;8.68;;;2.92;;
39674;SDS011;27790;50.840;4.386;2023-03-23T14:34:57;9.20;;;2.47;;
39674;SDS011;27790;50.840;4.386;2023-03-23T14:37:24;7.80;;;2.50;;
39674;SDS011;27790;50.840;4.386;2023-03-23T14:39:52;9.48;;;3.17;;
39674;SDS011;27790;50.840;4.386;2023-03-23T14:42:21;10.75;;;2.90;;
39674;SDS011;27790;50.840;4.386;2023-03-23T14:44:53;8.45;;;2.42;;
39674;SDS011;27790;50.840;4.386;2023-03-23T14:47:40;8.20;;;1.92;;
39674;SDS011;27790;50.840;4.386;2023-03-23T14:50:22;5.00;;;1.92;;
39674;SDS011;27790;50.840;4.386;2023-03-23T14:52:57;4.32;;;1.63;;
39674;SDS011;27790;50.840;4.386;2023-03-23T14:55:34;12.65;;;3.85;;
39674;SDS011;27790;50.840;4.386;2023-03-23T14:58:06;11.23;;;2.28;;
39674;SDS011;27790;50.840;4.386;2023-03-23T15:00:35;6.95;;;2.20;;
39674;SDS011;27790;50.840;4.386;2023-03-23T15:03:04;5.47;;;2.35;;
39674;SDS011;27790;50.840;4.386;2023-03-23T15:05:35;9.73;;;2.35;;
39674;SDS011;27790;50.840;4.386;2023-03-23T15:08:07;8.35;;;2.75;;
39674;SDS011;27790;50.840;4.386;2023-03-23T15:10:37;8.45;;;3.08;;
39674;SDS011;27790;50.840;4.386;2023-03-23T15:13:04;13.57;;;3.70;;
39674;SDS011;27790;50.840;4.386;2023-03-23T15:15:34;14.27;;;3.92;;
39674;SDS011;27790;50.840;4.386;2023-03-23T15:18:01;10.40;;;3.15;;
39674;SDS011;27790;50.840;4.386;2023-03-23T15:23:07;9.70;;;4.55;;
39674;SDS011;27790;50.840;4.386;2023-03-23T15:25:40;15.50;;;6.37;;
39674;SDS011;27790;50.840;4.386;2023-03-23T15:28:20;12.30;;;4.45;;
39674;SDS011;27790;50.840;4.386;2023-03-23T15:33:25;12.70;;;3.67;;
39674;SDS011;27790;50.840;4.386;2023-03-23T15:35:53;7.32;;;2.70;;
39674;SDS011;27790;50.840;4.386;2023-03-23T15:38:24;10.98;;;3.13;;
39674;SDS011;27790;50.840;4.386;2023-03-23T15:40:58;14.40;;;2.97;;
39674;SDS011;27790;50.840;4.386;2023-03-23T15:43:49;8.55;;;2.60;;
39674;SDS011;27790;50.840;4.386;2023-03-23T15:51:30;8.93;;;2.70;;
39674;SDS011;27790;50.840;4.386;2023-03-23T15:53:58;15.52;;;3.60;;
39674;SDS011;27790;50.840;4.386;2023-03-23T15:56:24;10.30;;;2.90;;
39674;SDS011;27790;50.840;4.386;2023-03-23T15:58:50;14.00;;;3.70;;
39674;SDS011;27790;50.840;4.386;2023-03-23T16:01:18;12.07;;;3.05;;
39674;SDS011;27790;50.840;4.386;2023-03-23T16:03:49;10.73;;;3.47;;
39674;SDS011;27790;50.840;4.386;2023-03-23T16:06:20;7.68;;;2.80;;
39674;SDS011;27790;50.840;4.386;2023-03-23T16:08:47;6.90;;;1.98;;
39674;SDS011;27790;50.840;4.386;2023-03-23T16:11:13;8.82;;;2.35;;
39674;SDS011;27790;50.840;4.386;2023-03-23T16:13:41;7.38;;;2.55;;
39674;SDS011;27790;50.840;4.386;2023-03-23T16:19:04;5.70;;;1.92;;
39674;SDS011;27790;50.840;4.386;2023-03-23T16:21:30;9.70;;;2.38;;
39674;SDS011;27790;50.840;4.386;2023-03-23T16:23:56;5.78;;;2.08;;
39674;SDS011;27790;50.840;4.386;2023-03-23T16:26:22;9.20;;;2.75;;
39674;SDS011;27790;50.840;4.386;2023-03-23T16:28:48;6.93;;;2.45;;
39674;SDS011;27790;50.840;4.386;2023-03-23T16:31:14;8.35;;;2.47;;
39674;SDS011;27790;50.840;4.386;2023-03-23T16:33:40;9.20;;;3.25;;
39674;SDS011;27790;50.840;4.386;2023-03-23T16:36:05;6.15;;;2.72;;
39674;SDS011;27790;50.840;4.386;2023-03-23T16:38:32;6.60;;;3.13;;
39674;SDS011;27790;50.840;4.386;2023-03-23T16:40:57;8.02;;;2.97;;
39674;SDS011;27790;50.840;4.386;2023-03-23T16:43:23;7.55;;;3.15;;
39674;SDS011;27790;50.840;4.386;2023-03-23T16:45:48;11.43;;;2.80;;
39674;SDS011;27790;50.840;4.386;2023-03-23T16:48:15;10.65;;;2.70;;
39674;SDS011;27790;50.840;4.386;2023-03-23T16:50:41;13.68;;;3.15;;
39674;SDS011;27790;50.840;4.386;2023-03-23T16:53:08;9.18;;;3.15;;
39674;SDS011;27790;50.840;4.386;2023-03-23T16:55:34;8.63;;;2.72;;
39674;SDS011;27790;50.840;4.386;2023-03-23T16:58:01;4.50;;;1.73;;
39674;SDS011;27790;50.840;4.386;2023-03-23T17:00:27;12.35;;;2.83;;
39674;SDS011;27790;50.840;4.386;2023-03-23T17:02:54;7.60;;;2.75;;
39674;SDS011;27790;50.840;4.386;2023-03-23T17:05:22;9.07;;;2.53;;
39674;SDS011;27790;50.840;4.386;2023-03-23T17:07:49;8.95;;;2.50;;
39674;SDS011;27790;50.840;4.386;2023-03-23T17:10:15;10.55;;;2.92;;
39674;SDS011;27790;50.840;4.386;2023-03-23T17:12:42;12.80;;;3.22;;
39674;SDS011;27790;50.840;4.386;2023-03-23T17:15:08;8.02;;;2.75;;
39674;SDS011;27790;50.840;4.386;2023-03-23T17:17:35;13.38;;;3.03;;
39674;SDS011;27790;50.840;4.386;2023-03-23T17:20:02;8.88;;;3.78;;
39674;SDS011;27790;50.840;4.386;2023-03-23T17:22:28;13.48;;;2.95;;
39674;SDS011;27790;50.840;4.386;2023-03-23T17:24:54;7.22;;;2.83;;
39674;SDS011;27790;50.840;4.386;2023-03-23T17:27:24;8.32;;;2.75;;
39674;SDS011;27790;50.840;4.386;2023-03-23T17:29:50;11.07;;;3.40;;
39674;SDS011;27790;50.840;4.386;2023-03-23T17:32:16;10.75;;;2.35;;
39674;SDS011;27790;50.840;4.386;2023-03-23T17:34:42;11.13;;;2.65;;
39674;SDS011;27790;50.840;4.386;2023-03-23T17:37:08;12.55;;;3.70;;
39674;SDS011;27790;50.840;4.386;2023-03-23T17:39:34;8.70;;;2.85;;
39674;SDS011;27790;50.840;4.386;2023-03-23T17:42:00;10.70;;;3.28;;
39674;SDS011;27790;50.840;4.386;2023-03-23T17:44:26;12.48;;;3.15;;
39674;SDS011;27790;50.840;4.386;2023-03-23T17:46:52;11.70;;;2.97;;
39674;SDS011;27790;50.840;4.386;2023-03-23T17:49:20;14.57;;;3.58;;